createdAt,value
2024-02-29T00:00:50.456Z,99443.63
2024-02-29T00:03:37.447Z,99436.78
2024-02-29T00:06:24.256Z,99441.03
2024-02-29T00:09:11.394Z,99445.75
2024-02-29T00:11:59.846Z,99449.81
2024-02-29T00:14:46.405Z,99446.13
2024-02-29T00:17:33.723Z,99443.41
2024-02-29T00:20:20.826Z,99444.56
2024-02-29T00:23:07.689Z,99440.53
2024-02-29T00:25:54.517Z,99435.34
2024-02-29T00:28:42.988Z,99434.94
2024-02-29T00:31:29.947Z,99436.19
2024-02-29T00:34:16.943Z,99431.34
2024-02-29T00:37:03.994Z,99422.91
2024-02-29T00:39:51.018Z,99424.00
2024-02-29T00:42:37.683Z,99416.88
2024-02-29T00:45:25.885Z,99417.47
2024-02-29T00:48:12.809Z,99420.44
2024-02-29T00:50:59.309Z,99410.75
2024-02-29T00:53:46.105Z,99416.59
2024-02-29T00:56:33.261Z,99413.75
2024-02-29T00:59:19.857Z,99411.41
2024-02-29T01:02:08.184Z,99414.44
2024-02-29T01:04:55.051Z,99409.09
2024-02-29T01:07:42.098Z,99403.56
2024-02-29T01:10:29.130Z,99407.94
2024-02-29T01:13:16.386Z,99401.25
2024-02-29T01:16:02.991Z,99399.59
2024-02-29T01:18:51.264Z,99395.41
2024-02-29T01:21:39.984Z,99403.88
2024-02-29T01:24:26.924Z,99392.53
2024-02-29T01:27:13.375Z,99398.81
2024-02-29T01:30:00.162Z,99390.25
2024-02-29T01:32:47.198Z,99387.22
2024-02-29T01:35:35.609Z,99384.06
2024-02-29T01:38:22.610Z,99379.53
2024-02-29T01:41:09.353Z,99374.72
2024-02-29T01:43:57.144Z,99366.69
2024-02-29T01:46:44.523Z,99362.91
2024-02-29T01:49:31.488Z,99360.47
2024-02-29T01:52:23.842Z,99362.56
2024-02-29T01:55:11.812Z,99360.38
2024-02-29T01:57:58.992Z,99357.13
2024-02-29T02:00:45.719Z,99356.06
2024-02-29T02:03:32.560Z,99356.75
2024-02-29T02:06:19.453Z,99354.66
2024-02-29T02:09:08.350Z,99345.09
2024-02-29T02:11:55.063Z,99344.16
2024-02-29T02:14:42.105Z,99333.47
2024-02-29T02:17:28.880Z,99344.53
2024-02-29T02:20:19.329Z,99335.56
2024-02-29T02:23:06.497Z,99332.09
2024-02-29T02:25:58.764Z,99328.94
2024-02-29T02:28:45.460Z,99320.66
2024-02-29T02:31:32.608Z,99316.28
2024-02-29T02:34:19.323Z,99332.50
2024-02-29T02:37:07.703Z,99322.41
2024-02-29T02:39:54.743Z,99314.03
2024-02-29T02:42:41.747Z,99315.31
2024-02-29T02:45:29.342Z,99307.44
2024-02-29T02:48:15.973Z,99301.63
2024-02-29T02:51:03.477Z,99295.28
2024-02-29T02:53:51.640Z,99297.47
2024-02-29T02:56:38.530Z,99292.03
2024-02-29T02:59:26.211Z,99286.03
2024-02-29T03:02:12.813Z,99293.66
2024-02-29T03:04:59.764Z,99291.13
2024-02-29T03:07:47.288Z,99280.00
2024-02-29T03:10:35.354Z,99278.53
2024-02-29T03:13:22.055Z,99268.09
2024-02-29T03:16:10.289Z,99271.72
2024-02-29T03:18:57.124Z,99263.13
2024-02-29T03:21:43.936Z,99257.91
2024-02-29T03:24:30.828Z,99253.91
2024-02-29T03:27:19.512Z,99255.03
2024-02-29T03:30:07.485Z,99251.28
2024-02-29T03:32:55.269Z,99250.09
2024-02-29T03:35:41.746Z,99244.63
2024-02-29T03:38:28.767Z,99244.25
2024-02-29T03:41:15.706Z,99242.56
2024-02-29T03:44:03.943Z,99238.75
2024-02-29T03:46:51.118Z,99242.56
2024-02-29T03:49:37.786Z,99235.59
2024-02-29T03:52:24.783Z,99230.63
2024-02-29T03:55:12.695Z,99237.41
2024-02-29T03:57:59.581Z,99242.13
2024-02-29T04:00:49.934Z,99237.13
2024-02-29T04:03:36.857Z,99236.69
2024-02-29T04:06:23.958Z,99235.19
2024-02-29T04:09:11.695Z,99238.34
2024-02-29T04:11:58.340Z,99230.53
2024-02-29T04:14:45.363Z,99222.56
2024-02-29T04:17:34.910Z,99231.81
2024-02-29T04:20:22.895Z,99230.47
2024-02-29T04:23:09.582Z,99227.50
2024-02-29T04:25:56.591Z,99229.50
2024-02-29T04:28:43.454Z,99214.41
2024-02-29T04:31:30.338Z,99217.19
2024-02-29T04:34:18.568Z,99215.78
2024-02-29T04:37:05.444Z,99220.69
2024-02-29T04:39:51.924Z,99217.94
2024-02-29T04:42:38.820Z,99216.84
2024-02-29T04:45:25.825Z,99210.50
2024-02-29T04:48:12.384Z,99214.16
2024-02-29T04:51:00.601Z,99211.75
2024-02-29T04:53:47.329Z,99204.81
2024-02-29T04:56:34.455Z,99207.31
2024-02-29T04:59:21.347Z,99201.88
2024-02-29T05:02:08.200Z,99201.09
2024-02-29T05:04:55.475Z,99204.66
2024-02-29T05:07:45.172Z,99196.50
2024-02-29T05:10:31.733Z,99197.81
2024-02-29T05:13:19.278Z,99190.31
2024-02-29T05:16:06.452Z,99193.50
2024-02-29T05:18:53.367Z,99195.81
2024-02-29T05:21:40.068Z,99183.03
2024-02-29T05:24:28.480Z,99184.91
2024-02-29T05:27:15.244Z,99172.88
2024-02-29T05:30:02.665Z,99178.06
2024-02-29T05:32:50.318Z,99179.22
2024-02-29T05:35:37.265Z,99170.31
2024-02-29T05:38:23.909Z,99170.78
2024-02-29T05:41:12.255Z,99171.44
2024-02-29T05:43:58.919Z,99165.31
2024-02-29T05:46:45.516Z,99165.56
2024-02-29T05:49:32.452Z,99162.72
2024-02-29T05:52:19.450Z,99161.00
2024-02-29T05:55:07.227Z,99166.22
2024-02-29T05:57:55.200Z,99154.53
2024-02-29T06:00:42.260Z,99156.28
2024-02-29T06:03:28.875Z,99158.38
2024-02-29T06:06:17.303Z,99156.38
2024-02-29T06:09:05.193Z,99156.59
2024-02-29T06:11:51.866Z,99157.31
2024-02-29T06:14:39.858Z,99160.56
2024-02-29T06:17:26.369Z,99165.16
2024-02-29T06:20:14.117Z,99177.53
2024-02-29T06:23:00.785Z,99169.41
2024-02-29T06:25:49.273Z,99175.59
2024-02-29T06:28:37.065Z,99176.50
2024-02-29T06:31:27.211Z,99188.69
2024-02-29T06:34:20.287Z,99180.78
2024-02-29T06:37:10.887Z,99190.63
2024-02-29T06:39:59.768Z,99186.81
2024-02-29T06:42:46.675Z,99184.75
2024-02-29T06:45:33.661Z,99184.78
2024-02-29T06:48:21.885Z,99182.09
2024-02-29T06:51:09.194Z,99183.50
2024-02-29T06:53:55.940Z,99180.94
2024-02-29T06:56:42.975Z,99172.44
2024-02-29T06:59:29.874Z,99175.91
2024-02-29T07:02:16.859Z,99167.03
2024-02-29T07:05:05.382Z,99164.69
2024-02-29T07:07:54.126Z,99156.81
2024-02-29T07:10:41.416Z,99157.81
2024-02-29T07:13:28.480Z,99151.53
2024-02-29T07:16:15.554Z,99147.19
2024-02-29T07:19:02.430Z,99138.16
2024-02-29T07:21:50.567Z,99143.50
2024-02-29T07:24:37.369Z,99135.34
2024-02-29T07:27:24.442Z,99141.56
2024-02-29T07:30:11.977Z,99133.63
2024-02-29T07:32:59.243Z,99141.00
2024-02-29T07:35:46.178Z,99129.44
2024-02-29T07:38:34.470Z,99128.00
2024-02-29T07:41:21.891Z,99122.31
2024-02-29T07:44:08.214Z,99125.00
2024-02-29T07:46:55.272Z,99121.47
2024-02-29T07:49:41.979Z,99119.94
2024-02-29T07:52:28.792Z,99118.88
2024-02-29T07:55:18.392Z,99114.78
2024-02-29T07:58:06.738Z,99115.41
2024-02-29T08:00:53.398Z,99101.47
2024-02-29T08:03:40.367Z,99105.19
2024-02-29T08:06:27.300Z,99095.41
2024-02-29T08:09:14.909Z,99093.00
2024-02-29T08:12:03.120Z,99082.38
2024-02-29T08:14:50.088Z,99087.25
2024-02-29T08:17:36.975Z,99081.19
2024-02-29T08:20:26.552Z,99079.91
2024-02-29T08:23:14.494Z,99081.31
2024-02-29T08:26:01.390Z,99081.44
2024-02-29T08:28:50.880Z,99077.81
2024-02-29T08:31:37.852Z,99071.34
2024-02-29T08:34:24.924Z,99070.22
2024-02-29T08:37:11.962Z,99065.38
2024-02-29T08:39:58.866Z,99065.34
2024-02-29T08:42:45.907Z,99070.81
2024-02-29T08:45:34.336Z,99059.56
2024-02-29T08:48:21.208Z,99062.28
2024-02-29T08:51:07.980Z,99051.28
2024-02-29T08:53:54.969Z,99056.97
2024-02-29T08:56:41.736Z,99049.34
2024-02-29T08:59:28.649Z,99045.69
2024-02-29T09:02:17.828Z,99051.09
2024-02-29T09:05:05.109Z,99053.44
2024-02-29T09:07:52.087Z,99053.81
2024-02-29T09:10:38.871Z,99050.91
2024-02-29T09:13:30.856Z,99044.94
2024-02-29T09:16:22.413Z,99043.97
2024-02-29T09:19:10.784Z,99037.25
2024-02-29T09:21:57.494Z,99032.91
2024-02-29T09:24:44.412Z,99026.41
2024-02-29T09:27:31.227Z,99030.25
2024-02-29T09:30:18.559Z,99031.00
2024-02-29T09:33:05.582Z,99014.09
2024-02-29T09:35:58.688Z,99012.19
2024-02-29T09:38:45.675Z,99009.91
2024-02-29T09:41:50.422Z,99000.63
2024-02-29T09:44:40.226Z,99004.81
2024-02-29T09:47:29.476Z,99000.31
2024-02-29T09:50:16.148Z,98998.00
2024-02-29T09:53:04.553Z,98981.25
2024-02-29T09:55:51.770Z,98981.31
2024-02-29T09:58:39.474Z,98962.53
2024-02-29T10:01:26.205Z,98953.06
2024-02-29T10:04:13.054Z,98955.03
2024-02-29T10:07:00.435Z,98938.38
2024-02-29T10:09:48.732Z,98938.56
2024-02-29T10:12:35.744Z,98935.66
2024-02-29T10:15:27.224Z,98934.28
2024-02-29T10:18:14.177Z,98937.50
2024-02-29T10:21:01.117Z,98930.25
2024-02-29T10:23:47.979Z,98925.06
2024-02-29T10:26:36.255Z,98914.53
2024-02-29T10:29:23.980Z,98909.03
2024-02-29T10:32:11.766Z,98902.03
2024-02-29T10:34:58.653Z,98902.16
2024-02-29T10:37:46.297Z,98899.06
2024-02-29T10:40:33.357Z,98897.25
2024-02-29T10:43:22.784Z,98883.88
2024-02-29T10:46:11.436Z,98877.47
2024-02-29T10:49:04.150Z,98872.53
2024-02-29T10:51:54.041Z,98867.44
2024-02-29T10:54:44.515Z,98866.47
2024-02-29T10:57:40.729Z,98860.31
2024-02-29T11:00:29.018Z,98852.69
2024-02-29T11:03:16.584Z,98850.03
2024-02-29T11:06:04.411Z,98840.47
2024-02-29T11:08:52.362Z,98842.84
2024-02-29T11:11:39.913Z,98825.13
2024-02-29T11:14:26.880Z,98825.84
2024-02-29T11:17:16.817Z,98832.50
2024-02-29T11:20:08.871Z,98816.56
2024-02-29T11:23:11.136Z,98800.75
2024-02-29T11:25:58.630Z,98800.78
2024-02-29T11:28:45.673Z,98787.41
2024-02-29T11:31:43.929Z,98799.34
2024-02-29T11:34:32.299Z,98799.09
2024-02-29T11:37:22.629Z,98781.16
2024-02-29T11:40:17.098Z,98760.25
2024-02-29T11:43:04.270Z,98756.63
2024-02-29T11:45:50.980Z,98760.50
2024-02-29T11:48:38.139Z,98746.78
2024-02-29T11:51:26.577Z,98738.91
2024-02-29T11:54:13.446Z,98722.13
2024-02-29T11:57:00.181Z,98716.31
2024-02-29T11:59:47.538Z,98716.34
2024-02-29T12:02:34.532Z,98697.59
2024-02-29T12:05:21.506Z,98696.16
2024-02-29T12:08:10.212Z,98697.09
2024-02-29T12:10:59.870Z,98693.03
2024-02-29T12:13:47.248Z,98673.59
2024-02-29T12:16:33.974Z,98675.00
2024-02-29T12:19:20.700Z,98672.47
2024-02-29T12:22:13.720Z,98678.38
2024-02-29T12:25:13.487Z,98654.97
2024-02-29T12:28:00.171Z,98655.53
2024-02-29T12:30:50.128Z,98638.53
2024-02-29T12:33:39.546Z,98624.66
2024-02-29T12:36:26.579Z,98631.66
2024-02-29T12:39:13.064Z,98631.56
2024-02-29T12:42:01.424Z,98612.25
2024-02-29T12:44:48.867Z,98625.88
2024-02-29T12:47:35.453Z,98625.50
2024-02-29T12:50:23.047Z,98629.69
2024-02-29T12:53:09.915Z,98616.53
2024-02-29T12:55:56.849Z,98600.41
2024-02-29T12:58:48.126Z,98603.66
2024-02-29T13:01:36.635Z,98591.13
2024-02-29T13:04:23.600Z,98588.03
2024-02-29T13:07:10.742Z,98583.69
2024-02-29T13:09:57.634Z,98580.34
2024-02-29T13:12:54.210Z,98585.03
2024-02-29T13:15:45.289Z,98563.00
2024-02-29T13:18:31.956Z,98562.56
2024-02-29T13:21:19.021Z,98553.41
2024-02-29T13:24:06.023Z,98543.00
2024-02-29T13:26:54.969Z,98530.84
2024-02-29T13:29:41.951Z,98512.91
2024-02-29T13:32:30.269Z,98518.34
2024-02-29T13:35:17.367Z,98502.16
2024-02-29T13:38:04.173Z,98507.78
2024-02-29T13:40:51.078Z,98514.34
2024-02-29T13:43:38.487Z,98506.31
2024-02-29T13:46:26.193Z,98494.31
2024-02-29T13:49:21.561Z,98483.38
2024-02-29T13:52:09.464Z,98474.97
2024-02-29T13:54:56.204Z,98472.34
2024-02-29T13:57:43.616Z,98479.19
2024-02-29T14:00:30.391Z,98470.22
2024-02-29T14:03:17.175Z,98468.53
2024-02-29T14:06:05.970Z,98452.81
2024-02-29T14:08:52.898Z,98437.78
2024-02-29T14:11:40.054Z,98438.06
2024-02-29T14:14:26.931Z,98438.25
2024-02-29T14:17:14.796Z,98433.47
2024-02-29T14:20:01.648Z,98432.03
2024-02-29T14:22:49.947Z,98420.94
2024-02-29T14:25:36.601Z,98427.00
2024-02-29T14:28:25.923Z,98424.19
2024-02-29T14:31:12.500Z,98417.28
2024-02-29T14:33:59.292Z,98410.44
2024-02-29T14:36:46.273Z,98407.31
2024-02-29T14:39:34.553Z,98398.50
2024-02-29T14:42:21.269Z,98379.50
2024-02-29T14:45:09.250Z,98378.75
2024-02-29T14:47:56.217Z,98369.88
2024-02-29T14:50:42.707Z,98370.91
2024-02-29T14:53:29.718Z,98373.69
2024-02-29T14:56:18.161Z,98384.41
2024-02-29T14:59:05.231Z,98380.25
2024-02-29T15:01:51.868Z,98368.28
2024-02-29T15:04:39.176Z,98378.91
2024-02-29T15:07:25.845Z,98373.13
2024-02-29T15:10:13.570Z,98361.03
2024-02-29T15:13:02.080Z,98377.00
2024-02-29T15:15:49.180Z,98397.13
2024-02-29T15:18:36.255Z,98385.91
2024-02-29T15:21:23.323Z,98383.53
2024-02-29T15:24:09.794Z,98371.66
2024-02-29T15:27:00.164Z,98376.72
2024-02-29T15:29:49.483Z,98374.41
2024-02-29T15:32:36.378Z,98361.19
2024-02-29T15:35:23.400Z,98358.22
2024-02-29T15:38:10.290Z,98360.59
2024-02-29T15:40:57.038Z,98357.56
2024-02-29T15:43:44.076Z,98347.28
2024-02-29T15:46:32.426Z,98345.97
2024-02-29T15:49:19.181Z,98349.88
2024-02-29T15:52:07.503Z,98351.25
2024-02-29T15:54:54.121Z,98350.97
2024-02-29T15:57:41.181Z,98357.88
2024-02-29T16:00:27.802Z,98347.34
2024-02-29T16:03:16.167Z,98342.13
2024-02-29T16:06:03.095Z,98343.56
2024-02-29T16:08:50.197Z,98331.53
2024-02-29T16:11:37.889Z,98327.13
2024-02-29T16:14:29.513Z,98342.31
2024-02-29T16:17:16.946Z,98338.59
2024-02-29T16:20:05.823Z,98337.81
2024-02-29T16:22:52.726Z,98331.41
2024-02-29T16:25:39.720Z,98332.22
2024-02-29T16:28:27.339Z,98330.56
2024-02-29T16:31:14.428Z,98329.13
2024-02-29T16:34:01.400Z,98329.38
2024-02-29T16:36:50.908Z,98324.13
2024-02-29T16:39:38.075Z,98323.66
2024-02-29T16:42:24.790Z,98322.47
2024-02-29T16:45:11.808Z,98315.00
2024-02-29T16:47:58.651Z,98318.91
2024-02-29T16:50:46.346Z,98318.44
2024-02-29T16:53:34.949Z,98321.47
2024-02-29T16:56:24.114Z,98317.72
2024-02-29T16:59:10.788Z,98315.19
2024-02-29T17:01:57.717Z,98308.44
2024-02-29T17:04:44.528Z,98318.63
2024-02-29T17:07:31.456Z,98321.16
2024-02-29T17:10:19.807Z,98320.44
2024-02-29T17:13:06.532Z,98323.09
2024-02-29T17:15:53.336Z,98317.81
2024-02-29T17:18:40.185Z,98317.94
2024-02-29T17:21:27.560Z,98317.84
2024-02-29T17:24:14.383Z,98314.88
2024-02-29T17:27:02.656Z,98316.16
2024-02-29T17:29:49.717Z,98318.66
2024-02-29T17:32:36.399Z,98320.13
2024-02-29T17:35:23.419Z,98316.97
2024-02-29T17:38:10.278Z,98310.44
2024-02-29T17:40:57.504Z,98316.03
2024-02-29T17:43:45.608Z,98312.19
2024-02-29T17:46:32.636Z,98311.44
2024-02-29T17:49:19.769Z,98310.13
2024-02-29T17:52:07.622Z,98303.69
2024-02-29T17:54:55.348Z,98303.91
2024-02-29T17:57:43.417Z,98298.13
2024-02-29T18:00:33.091Z,98302.06
2024-02-29T18:03:20.044Z,98301.81
2024-02-29T18:06:07.199Z,98297.66
2024-02-29T18:08:53.860Z,98300.19
2024-02-29T18:11:41.389Z,98291.47
2024-02-29T18:14:30.227Z,98292.13
2024-02-29T18:17:18.344Z,98284.31
2024-02-29T18:20:06.836Z,98287.84
2024-02-29T18:22:53.541Z,98286.50
2024-02-29T18:25:40.637Z,98291.31
2024-02-29T18:28:27.590Z,98285.31
2024-02-29T18:31:14.520Z,98301.75
2024-02-29T18:34:03.233Z,98295.53
2024-02-29T18:36:50.130Z,98292.59
2024-02-29T18:39:36.993Z,98292.53
2024-02-29T18:42:23.958Z,98296.31
2024-02-29T18:45:13.822Z,98296.91
2024-02-29T18:48:00.316Z,98293.91
2024-02-29T18:50:48.583Z,98296.31
2024-02-29T18:53:35.152Z,98288.25
2024-02-29T18:56:22.243Z,98287.16
2024-02-29T18:59:10.149Z,98290.31
2024-02-29T19:01:57.798Z,98285.13
2024-02-29T19:04:44.545Z,98290.19
2024-02-29T19:07:33.429Z,98281.59
2024-02-29T19:10:19.918Z,98279.06
2024-02-29T19:13:06.783Z,98285.84
2024-02-29T19:15:53.990Z,98277.25
2024-02-29T19:18:41.813Z,98277.25
2024-02-29T19:21:28.461Z,98277.56
2024-02-29T19:24:16.904Z,98274.88
2024-02-29T19:27:03.489Z,98280.75
2024-02-29T19:29:53.260Z,98271.88
2024-02-29T19:32:39.952Z,98265.78
2024-02-29T19:35:29.143Z,98263.00
2024-02-29T19:38:15.983Z,98257.84
2024-02-29T19:41:05.121Z,98255.91
2024-02-29T19:43:52.137Z,98252.38
2024-02-29T19:46:44.171Z,98243.06
2024-02-29T19:49:30.873Z,98242.75
2024-02-29T19:52:17.755Z,98240.22
2024-02-29T19:55:06.901Z,98231.91
2024-02-29T19:57:55.016Z,98238.63
2024-02-29T20:00:48.364Z,98227.59
2024-02-29T20:03:35.454Z,98226.31
2024-02-29T20:06:22.530Z,98220.75
2024-02-29T20:09:09.866Z,98213.06
2024-02-29T20:11:56.986Z,98210.09
2024-02-29T20:14:44.928Z,98210.38
2024-02-29T20:17:31.516Z,98211.34
2024-02-29T20:20:18.637Z,98211.56
2024-02-29T20:23:05.892Z,98210.59
2024-02-29T20:25:52.827Z,98200.50
2024-02-29T20:28:39.844Z,98206.97
2024-02-29T20:31:30.087Z,98205.72
2024-02-29T20:34:16.863Z,98204.13
2024-02-29T20:37:03.706Z,98200.25
2024-02-29T20:39:50.618Z,98210.69
2024-02-29T20:42:37.793Z,98204.47
2024-02-29T20:45:25.461Z,98191.59
2024-02-29T20:48:16.537Z,98200.22
2024-02-29T20:51:03.054Z,98205.53
2024-02-29T20:53:49.427Z,98197.97
2024-02-29T20:56:36.214Z,98194.94
2024-02-29T20:59:24.723Z,98194.59
2024-02-29T21:02:12.751Z,98190.16
2024-02-29T21:05:05.355Z,98194.16
2024-02-29T21:07:52.552Z,98192.94
2024-02-29T21:10:39.116Z,98191.53
2024-02-29T21:13:26.500Z,98187.03
2024-02-29T21:16:13.730Z,98180.50
2024-02-29T21:19:00.644Z,98184.72
2024-02-29T21:21:49.122Z,98184.81
2024-02-29T21:24:35.688Z,98182.09
2024-02-29T21:27:22.608Z,98173.66
2024-02-29T21:30:10.958Z,98175.22
2024-02-29T21:32:57.985Z,98176.22
2024-02-29T21:35:45.105Z,98169.69
2024-02-29T21:38:33.134Z,98162.81
2024-02-29T21:41:23.094Z,98161.28
2024-02-29T21:44:10.110Z,98168.31
2024-02-29T21:46:57.064Z,98161.63
2024-02-29T21:49:43.827Z,98163.84
2024-02-29T21:52:31.577Z,98161.72
2024-02-29T21:55:20.008Z,98166.88
2024-02-29T21:58:06.734Z,98164.13
2024-02-29T22:00:53.601Z,98155.94
2024-02-29T22:03:40.736Z,98149.75
2024-02-29T22:06:27.756Z,98144.94
2024-02-29T22:09:14.685Z,98147.69
2024-02-29T22:12:02.999Z,98139.44
2024-02-29T22:14:49.777Z,98142.56
2024-02-29T22:17:36.832Z,98144.13
2024-02-29T22:20:23.645Z,98151.56
2024-02-29T22:23:10.375Z,98150.56
2024-02-29T22:25:56.794Z,98144.78
2024-02-29T22:28:45.063Z,98137.66
2024-02-29T22:31:32.128Z,98139.19
2024-02-29T22:34:18.854Z,98144.59
2024-02-29T22:37:06.086Z,98141.78
2024-02-29T22:39:52.965Z,98135.84
2024-02-29T22:42:39.841Z,98142.31
2024-02-29T22:45:27.923Z,98135.78
2024-02-29T22:48:15.050Z,98142.38
2024-02-29T22:51:02.092Z,98140.59
2024-02-29T22:53:49.051Z,98131.38
2024-02-29T22:56:35.844Z,98135.84
2024-02-29T22:59:22.326Z,98134.16
2024-02-29T23:02:10.677Z,98126.28
2024-02-29T23:04:57.396Z,98118.25
2024-02-29T23:07:46.282Z,98125.38
2024-02-29T23:10:32.714Z,98125.06
2024-02-29T23:13:19.648Z,98123.22
2024-02-29T23:16:06.721Z,98117.50
2024-02-29T23:18:55.226Z,98120.41
2024-02-29T23:21:41.780Z,98116.13
2024-02-29T23:24:28.564Z,98115.28
2024-02-29T23:27:15.602Z,98110.81
2024-02-29T23:30:02.259Z,98116.66
2024-02-29T23:32:49.191Z,98117.81
2024-02-29T23:35:37.417Z,98116.13
2024-02-29T23:38:24.203Z,98114.13
2024-02-29T23:41:11.093Z,98118.44
2024-02-29T23:43:58.062Z,98119.97
2024-02-29T23:46:44.701Z,98106.34
2024-02-29T23:49:31.281Z,98110.41
2024-02-29T23:52:19.431Z,98108.63
2024-02-29T23:55:07.139Z,98103.63
2024-02-29T23:57:54.481Z,98111.34
